createdAt,value
2023-01-19T00:00:29.694Z,20.33
2023-01-19T00:02:56.383Z,20.30
2023-01-19T00:05:22.993Z,17.63
2023-01-19T00:07:49.571Z,17.15
2023-01-19T00:10:16.687Z,17.70
2023-01-19T00:12:43.294Z,20.23
2023-01-19T00:15:10.283Z,20.40
2023-01-19T00:17:36.866Z,18.80
2023-01-19T00:20:04.066Z,15.02
2023-01-19T00:22:30.620Z,20.60
2023-01-19T00:24:57.429Z,20.85
2023-01-19T00:27:24.735Z,16.02
2023-01-19T00:29:51.299Z,19.48
2023-01-19T00:32:18.193Z,15.13
2023-01-19T00:34:49.884Z,16.70
2023-01-19T00:37:17.395Z,22.00
2023-01-19T00:39:44.746Z,18.52
2023-01-19T00:42:30.837Z,17.38
2023-01-19T00:44:57.668Z,18.83
2023-01-19T00:47:24.381Z,18.67
2023-01-19T00:49:50.941Z,18.23
2023-01-19T00:52:17.501Z,18.30
2023-01-19T00:54:44.068Z,19.40
2023-01-19T00:57:10.622Z,19.30
2023-01-19T00:59:37.207Z,21.20
2023-01-19T01:02:03.984Z,18.38
2023-01-19T01:04:30.789Z,21.02
2023-01-19T01:06:57.362Z,19.75
2023-01-19T01:09:24.395Z,22.50
2023-01-19T01:11:50.960Z,18.65
2023-01-19T01:14:17.726Z,19.70
2023-01-19T01:16:44.450Z,19.52
2023-01-19T01:19:11.105Z,22.92
2023-01-19T01:21:37.664Z,20.10
2023-01-19T01:24:04.814Z,20.17
2023-01-19T01:26:31.359Z,21.83
2023-01-19T01:28:57.936Z,22.70
2023-01-19T01:31:24.584Z,22.63
2023-01-19T01:33:51.142Z,21.15
2023-01-19T01:36:19.109Z,22.23
2023-01-19T01:38:45.675Z,20.08
2023-01-19T01:41:12.310Z,21.48
2023-01-19T01:43:56.586Z,16.25
2023-01-19T01:46:23.142Z,19.77
2023-01-19T01:48:54.011Z,24.15
2023-01-19T01:51:34.344Z,21.27
2023-01-19T01:54:21.926Z,20.73
2023-01-19T01:56:53.605Z,21.80
2023-01-19T01:59:27.160Z,18.17
2023-01-19T02:02:14.880Z,24.30
2023-01-19T02:04:51.133Z,24.25
2023-01-19T02:07:45.490Z,18.08
2023-01-19T02:10:30.725Z,22.30
2023-01-19T02:13:16.028Z,24.33
2023-01-19T02:15:43.869Z,26.10
2023-01-19T02:18:10.947Z,25.67
2023-01-19T02:20:37.757Z,23.35
2023-01-19T02:23:08.623Z,22.58
2023-01-19T02:25:35.200Z,21.17
2023-01-19T02:28:02.167Z,21.52
2023-01-19T02:30:28.887Z,21.92
2023-01-19T02:32:55.738Z,24.77
2023-01-19T02:35:23.400Z,37.78
2023-01-19T02:37:50.427Z,24.20
2023-01-19T02:40:19.828Z,20.48
2023-01-19T02:42:48.816Z,22.75
2023-01-19T02:45:18.768Z,27.08
2023-01-19T02:47:47.609Z,32.25
2023-01-19T02:50:39.514Z,29.60
2023-01-19T02:53:33.247Z,27.75
2023-01-19T02:56:11.346Z,27.77
2023-01-19T02:58:59.011Z,31.13
2023-01-19T03:01:41.540Z,53.22
2023-01-19T03:04:26.279Z,28.73
2023-01-19T03:07:02.196Z,27.38
2023-01-19T03:09:47.489Z,29.67
2023-01-19T03:12:24.964Z,26.38
2023-01-19T03:14:55.971Z,24.25
2023-01-19T03:17:22.568Z,22.42
2023-01-19T03:19:49.725Z,24.23
2023-01-19T03:22:27.181Z,25.25
2023-01-19T03:24:55.787Z,37.53
2023-01-19T03:27:26.677Z,27.98
2023-01-19T03:29:55.950Z,24.35
2023-01-19T03:32:29.840Z,27.85
2023-01-19T03:34:59.816Z,25.85
2023-01-19T03:37:27.556Z,28.63
2023-01-19T03:39:54.206Z,23.00
2023-01-19T03:42:20.806Z,26.63
2023-01-19T03:44:50.659Z,22.42
2023-01-19T03:47:17.848Z,23.42
2023-01-19T03:49:45.345Z,26.45
2023-01-19T03:52:12.968Z,27.20
2023-01-19T03:54:39.736Z,21.17
2023-01-19T03:57:06.348Z,32.20
2023-01-19T03:59:32.922Z,27.98
2023-01-19T04:01:59.572Z,25.55
2023-01-19T04:04:26.192Z,25.13
2023-01-19T04:06:52.768Z,29.67
2023-01-19T04:09:20.163Z,21.95
2023-01-19T04:11:46.791Z,27.13
2023-01-19T04:14:13.923Z,31.38
2023-01-19T04:16:40.506Z,23.80
2023-01-19T04:19:07.063Z,23.92
2023-01-19T04:21:33.634Z,56.75
2023-01-19T04:24:00.180Z,37.92
2023-01-19T04:26:26.760Z,29.30
2023-01-19T04:28:53.339Z,27.95
2023-01-19T04:31:20.032Z,32.78
2023-01-19T04:33:46.623Z,29.13
2023-01-19T04:36:13.200Z,29.05
2023-01-19T04:38:39.791Z,32.75
2023-01-19T04:41:06.341Z,32.15
2023-01-19T04:43:32.965Z,25.27
2023-01-19T04:45:59.520Z,27.45
2023-01-19T04:48:26.102Z,24.42
2023-01-19T04:50:52.754Z,22.95
2023-01-19T04:53:19.427Z,25.98
2023-01-19T04:55:46.780Z,23.73
2023-01-19T04:58:13.368Z,21.90
2023-01-19T05:00:39.951Z,23.95
2023-01-19T05:03:06.580Z,26.33
2023-01-19T05:05:33.326Z,25.17
2023-01-19T05:08:00.502Z,26.88
2023-01-19T05:10:27.053Z,28.85
2023-01-19T05:12:53.617Z,22.00
2023-01-19T05:15:20.200Z,22.55
2023-01-19T05:17:46.770Z,23.85
2023-01-19T05:20:16.067Z,24.70
2023-01-19T05:22:43.527Z,25.70
2023-01-19T05:25:10.098Z,26.35
2023-01-19T05:27:37.524Z,23.98
2023-01-19T05:30:05.618Z,22.75
2023-01-19T05:32:32.359Z,21.75
2023-01-19T05:34:59.109Z,24.27
2023-01-19T05:37:25.710Z,23.35
2023-01-19T05:39:52.931Z,21.33
2023-01-19T05:42:20.258Z,21.80
2023-01-19T05:44:46.831Z,22.63
2023-01-19T05:47:13.377Z,22.10
2023-01-19T05:49:39.956Z,25.88
2023-01-19T05:52:06.594Z,26.10
2023-01-19T05:54:33.299Z,22.92
2023-01-19T05:56:59.882Z,19.73
2023-01-19T05:59:26.545Z,22.30
2023-01-19T06:01:53.954Z,25.02
2023-01-19T06:04:21.060Z,24.30
2023-01-19T06:06:48.700Z,20.92
2023-01-19T06:09:15.388Z,20.25
2023-01-19T06:11:41.957Z,22.25
2023-01-19T06:14:10.240Z,21.92
2023-01-19T06:16:37.107Z,21.88
2023-01-19T06:19:04.135Z,18.80
2023-01-19T06:21:30.936Z,20.02
2023-01-19T06:23:57.597Z,17.40
2023-01-19T06:26:24.339Z,19.77
2023-01-19T06:28:52.144Z,23.30
2023-01-19T06:31:18.910Z,21.27
2023-01-19T06:33:45.534Z,21.80
2023-01-19T06:36:13.278Z,18.63
2023-01-19T06:38:40.063Z,21.70
2023-01-19T06:41:06.604Z,24.80
2023-01-19T06:43:33.164Z,22.38
2023-01-19T06:46:00.823Z,24.83
2023-01-19T06:48:27.575Z,20.30
2023-01-19T06:50:54.168Z,23.70
2023-01-19T06:53:22.311Z,26.67
2023-01-19T06:55:48.976Z,20.15
2023-01-19T06:58:15.818Z,23.70
2023-01-19T07:00:43.161Z,25.00
2023-01-19T07:03:19.495Z,21.70
2023-01-19T07:05:46.475Z,21.88
2023-01-19T07:08:13.193Z,22.75
2023-01-19T07:11:25.537Z,23.92
2023-01-19T07:13:26.350Z,20.52
2023-01-19T07:15:52.917Z,19.55
2023-01-19T07:18:19.505Z,24.20
2023-01-19T07:20:46.981Z,20.85
2023-01-19T07:23:13.758Z,21.88
2023-01-19T07:25:40.599Z,19.10
2023-01-19T07:28:07.187Z,25.23
2023-01-19T07:30:33.939Z,20.95
2023-01-19T07:33:00.878Z,20.85
2023-01-19T07:35:29.681Z,22.90
2023-01-19T07:37:56.247Z,18.63
2023-01-19T07:40:23.993Z,20.30
2023-01-19T07:42:52.069Z,20.20
2023-01-19T07:45:20.554Z,20.75
2023-01-19T07:47:51.197Z,27.73
2023-01-19T07:50:21.355Z,36.25
2023-01-19T07:52:50.745Z,32.47
2023-01-19T07:55:17.735Z,26.52
2023-01-19T07:57:44.649Z,23.25
2023-01-19T08:00:11.911Z,22.25
2023-01-19T08:02:41.687Z,21.10
2023-01-19T08:05:08.580Z,26.35
2023-01-19T08:07:35.353Z,22.77
2023-01-19T08:10:01.952Z,35.42
2023-01-19T08:12:28.571Z,16.30
2023-01-19T08:14:55.229Z,25.73
2023-01-19T08:17:21.798Z,18.83
2023-01-19T08:19:48.420Z,18.85
2023-01-19T08:22:15.326Z,21.33
2023-01-19T08:24:41.971Z,18.15
2023-01-19T08:27:10.074Z,19.65
2023-01-19T08:29:36.947Z,17.98
2023-01-19T08:32:04.949Z,19.02
2023-01-19T08:34:32.076Z,32.15
2023-01-19T08:36:59.293Z,24.40
2023-01-19T08:39:26.068Z,17.17
2023-01-19T08:41:52.776Z,16.10
2023-01-19T08:44:19.623Z,18.95
2023-01-19T08:46:46.729Z,22.25
2023-01-19T08:49:13.675Z,19.02
2023-01-19T08:51:40.316Z,15.73
2023-01-19T08:54:06.896Z,23.95
2023-01-19T08:56:33.485Z,18.75
2023-01-19T08:59:09.242Z,17.05
2023-01-19T09:01:37.364Z,15.50
2023-01-19T09:04:05.584Z,16.45
2023-01-19T09:06:32.900Z,14.27
2023-01-19T09:08:59.553Z,14.00
2023-01-19T09:11:27.527Z,12.52
2023-01-19T09:13:54.246Z,16.50
2023-01-19T09:16:21.984Z,17.20
2023-01-19T09:18:48.642Z,13.43
2023-01-19T09:21:15.288Z,14.82
2023-01-19T09:23:42.908Z,14.20
2023-01-19T09:26:10.427Z,17.17
2023-01-19T09:28:37.728Z,12.88
2023-01-19T09:31:06.648Z,19.63
2023-01-19T09:33:33.927Z,13.00
2023-01-19T09:36:00.534Z,13.85
2023-01-19T09:38:31.530Z,15.30
2023-01-19T09:40:59.640Z,12.38
2023-01-19T09:43:49.649Z,12.27
2023-01-19T09:46:20.611Z,11.68
2023-01-19T09:48:50.368Z,11.52
2023-01-19T09:51:23.253Z,15.18
2023-01-19T09:54:06.887Z,14.52
2023-01-19T09:56:33.673Z,11.18
2023-01-19T09:59:00.720Z,16.13
2023-01-19T10:01:35.409Z,12.93
2023-01-19T10:04:28.214Z,12.38
2023-01-19T10:07:10.188Z,10.98
2023-01-19T10:10:02.548Z,9.40
2023-01-19T10:12:43.826Z,12.82
2023-01-19T10:15:21.272Z,10.88
2023-01-19T10:18:09.137Z,12.45
2023-01-19T10:20:40.096Z,12.77
2023-01-19T10:23:20.957Z,11.43
2023-01-19T10:25:47.894Z,12.13
2023-01-19T10:28:15.542Z,13.77
2023-01-19T10:30:43.088Z,12.52
2023-01-19T10:33:12.712Z,13.70
2023-01-19T10:35:39.496Z,12.73
2023-01-19T10:38:06.345Z,9.75
2023-01-19T10:40:58.748Z,9.70
2023-01-19T10:43:34.544Z,12.77
2023-01-19T10:46:05.211Z,10.35
2023-01-19T10:48:42.090Z,9.98
2023-01-19T10:51:10.387Z,10.43
2023-01-19T10:53:37.584Z,12.10
2023-01-19T10:56:35.508Z,10.98
2023-01-19T10:59:04.334Z,14.32
2023-01-19T11:01:35.914Z,11.32
2023-01-19T11:04:28.750Z,13.45
2023-01-19T11:07:23.902Z,12.07
2023-01-19T11:10:21.162Z,10.88
2023-01-19T11:13:08.710Z,12.27
2023-01-19T11:15:44.365Z,12.18
2023-01-19T11:18:28.273Z,10.68
2023-01-19T11:21:06.746Z,15.77
2023-01-19T11:23:43.563Z,11.32
2023-01-19T11:26:16.475Z,10.98
2023-01-19T11:28:47.072Z,11.05
2023-01-19T11:31:13.927Z,10.98
2023-01-19T11:33:50.897Z,11.30
2023-01-19T11:36:28.760Z,11.10
2023-01-19T11:38:57.646Z,10.40
2023-01-19T11:41:36.646Z,12.57
2023-01-19T11:44:14.102Z,12.65
2023-01-19T11:46:43.987Z,11.25
2023-01-19T11:49:52.614Z,9.90
2023-01-19T11:52:26.653Z,12.35
2023-01-19T11:55:01.969Z,10.75
2023-01-19T11:57:28.602Z,12.48
2023-01-19T11:59:55.423Z,11.65
2023-01-19T12:02:32.503Z,9.73
2023-01-19T12:05:03.968Z,10.18
2023-01-19T12:07:33.866Z,10.35
2023-01-19T12:10:23.498Z,9.55
2023-01-19T12:12:50.345Z,10.02
2023-01-19T12:15:37.000Z,11.13
2023-01-19T12:18:05.801Z,14.23
2023-01-19T12:20:39.137Z,12.02
2023-01-19T12:23:11.719Z,11.45
2023-01-19T12:25:47.319Z,9.60
2023-01-19T12:28:15.635Z,9.75
2023-01-19T12:30:42.322Z,10.43
2023-01-19T12:33:26.185Z,13.20
2023-01-19T12:35:57.969Z,10.23
2023-01-19T12:38:35.181Z,11.07
2023-01-19T12:41:36.451Z,10.02
2023-01-19T12:44:12.345Z,12.93
2023-01-19T12:47:05.375Z,12.40
2023-01-19T12:49:35.000Z,42.25
2023-01-19T12:52:27.237Z,13.93
2023-01-19T12:55:00.134Z,12.10
2023-01-19T12:57:41.892Z,11.68
2023-01-19T13:00:33.362Z,9.88
2023-01-19T13:03:02.265Z,9.52
2023-01-19T13:05:33.126Z,12.32
2023-01-19T13:08:03.001Z,13.13
2023-01-19T13:11:02.101Z,13.18
2023-01-19T13:13:29.356Z,10.80
2023-01-19T13:15:57.213Z,12.65
2023-01-19T13:18:26.484Z,9.93
2023-01-19T13:20:58.940Z,11.25
2023-01-19T13:23:27.263Z,10.60
2023-01-19T13:26:01.373Z,10.00
2023-01-19T13:28:35.640Z,16.83
2023-01-19T13:31:03.222Z,14.68
2023-01-19T13:33:35.767Z,17.50
2023-01-19T13:36:02.423Z,12.95
2023-01-19T13:38:29.862Z,12.18
2023-01-19T13:40:57.197Z,12.88
2023-01-19T13:43:28.584Z,12.07
2023-01-19T13:45:55.497Z,12.25
2023-01-19T13:48:23.378Z,13.70
2023-01-19T13:51:04.709Z,13.95
2023-01-19T13:53:31.852Z,13.52
2023-01-19T13:56:20.796Z,15.60
2023-01-19T13:59:10.824Z,12.77
2023-01-19T14:01:39.160Z,11.07
2023-01-19T14:04:05.958Z,17.02
2023-01-19T14:06:38.882Z,12.48
2023-01-19T14:09:14.893Z,12.55
2023-01-19T14:11:41.523Z,13.23
2023-01-19T14:14:25.386Z,14.57
2023-01-19T14:16:52.088Z,14.48
2023-01-19T14:19:18.737Z,16.23
2023-01-19T14:21:46.192Z,17.25
2023-01-19T14:24:19.583Z,18.23
2023-01-19T14:26:48.767Z,19.42
2023-01-19T14:29:21.807Z,16.80
2023-01-19T14:32:10.341Z,16.52
2023-01-19T14:34:37.239Z,16.65
2023-01-19T14:37:11.760Z,17.02
2023-01-19T14:39:44.738Z,18.33
2023-01-19T14:42:17.411Z,19.35
2023-01-19T14:44:48.274Z,18.05
2023-01-19T14:47:38.546Z,17.80
2023-01-19T14:50:10.848Z,16.05
2023-01-19T14:52:40.686Z,17.15
2023-01-19T14:55:19.601Z,17.27
2023-01-19T14:57:46.203Z,15.55
2023-01-19T15:00:17.477Z,16.38
2023-01-19T15:02:45.733Z,14.23
2023-01-19T15:05:13.482Z,14.95
2023-01-19T15:07:42.273Z,16.85
2023-01-19T15:10:27.253Z,16.20
2023-01-19T15:12:54.616Z,18.52
2023-01-19T15:15:27.157Z,17.92
2023-01-19T15:17:56.054Z,16.45
2023-01-19T15:20:23.359Z,15.73
2023-01-19T15:22:49.938Z,18.17
2023-01-19T15:25:19.369Z,19.67
2023-01-19T15:27:47.412Z,18.30
2023-01-19T15:30:16.211Z,19.23
2023-01-19T15:32:44.143Z,16.75
2023-01-19T15:35:21.994Z,18.58
2023-01-19T15:37:50.659Z,19.52
2023-01-19T15:40:18.727Z,20.33
2023-01-19T15:42:45.811Z,17.48
2023-01-19T15:45:32.101Z,19.48
2023-01-19T15:47:59.247Z,19.92
2023-01-19T15:50:26.298Z,18.75
2023-01-19T15:52:53.153Z,18.58
2023-01-19T15:55:19.828Z,16.70
2023-01-19T15:57:47.785Z,19.27
2023-01-19T16:00:14.901Z,20.75
2023-01-19T16:02:41.988Z,21.75
2023-01-19T16:05:09.392Z,17.90
2023-01-19T16:07:37.689Z,18.35
2023-01-19T16:10:11.934Z,19.02
2023-01-19T16:12:40.164Z,19.42
2023-01-19T16:15:07.560Z,16.48
2023-01-19T16:17:36.414Z,15.15
2023-01-19T16:20:17.259Z,17.77
2023-01-19T16:22:58.547Z,16.23
2023-01-19T16:25:31.094Z,15.85
2023-01-19T16:27:58.021Z,16.77
2023-01-19T16:30:24.590Z,15.77
2023-01-19T16:32:51.323Z,21.75
2023-01-19T16:35:17.886Z,24.13
2023-01-19T16:37:44.562Z,19.95
2023-01-19T16:40:11.991Z,20.75
2023-01-19T16:42:39.762Z,39.83
2023-01-19T16:45:06.691Z,28.00
2023-01-19T16:47:33.319Z,50.38
2023-01-19T16:49:59.916Z,29.08
2023-01-19T16:52:26.546Z,19.70
2023-01-19T16:54:54.747Z,25.52
2023-01-19T16:57:21.406Z,20.83
2023-01-19T16:59:48.119Z,24.52
2023-01-19T17:02:14.825Z,19.77
2023-01-19T17:04:41.625Z,16.40
2023-01-19T17:07:08.210Z,17.58
2023-01-19T17:09:34.772Z,18.13
2023-01-19T17:12:01.330Z,14.68
2023-01-19T17:14:27.922Z,18.10
2023-01-19T17:16:54.689Z,20.85
2023-01-19T17:19:22.196Z,14.75
2023-01-19T17:21:49.237Z,16.90
2023-01-19T17:24:17.020Z,16.33
2023-01-19T17:26:45.993Z,17.95
2023-01-19T17:29:12.689Z,12.90
2023-01-19T17:31:39.323Z,14.68
2023-01-19T17:34:06.281Z,15.65
2023-01-19T17:36:33.569Z,14.35
2023-01-19T17:39:01.498Z,14.77
2023-01-19T17:41:29.919Z,13.93
2023-01-19T17:43:57.234Z,14.93
2023-01-19T17:46:26.820Z,15.68
2023-01-19T17:49:01.792Z,14.77
2023-01-19T17:51:29.297Z,14.75
2023-01-19T17:53:56.810Z,17.98
2023-01-19T17:56:29.920Z,17.30
2023-01-19T17:58:57.634Z,17.27
2023-01-19T18:01:26.969Z,18.00
2023-01-19T18:03:53.736Z,18.40
2023-01-19T18:06:21.296Z,15.38
2023-01-19T18:08:49.424Z,16.70
2023-01-19T18:11:17.500Z,14.20
2023-01-19T18:13:45.783Z,15.65
2023-01-19T18:16:14.884Z,16.50
2023-01-19T18:18:41.881Z,21.02
2023-01-19T18:21:10.453Z,17.33
2023-01-19T18:23:37.727Z,13.43
2023-01-19T18:26:12.451Z,15.23
2023-01-19T18:28:39.130Z,19.20
2023-01-19T18:31:11.645Z,19.98
2023-01-19T18:33:38.876Z,17.88
2023-01-19T18:36:06.128Z,14.95
2023-01-19T18:38:33.388Z,24.27
2023-01-19T18:41:12.202Z,14.82
2023-01-19T18:43:39.029Z,18.15
2023-01-19T18:46:06.017Z,18.42
2023-01-19T18:48:32.856Z,18.70
2023-01-19T18:51:03.459Z,17.63
2023-01-19T18:53:31.590Z,16.83
2023-01-19T18:55:59.651Z,18.50
2023-01-19T18:58:29.341Z,16.70
2023-01-19T19:00:56.687Z,17.70
2023-01-19T19:03:23.350Z,15.73
2023-01-19T19:05:50.095Z,19.02
2023-01-19T19:08:16.821Z,15.25
2023-01-19T19:10:43.760Z,20.85
2023-01-19T19:13:15.650Z,21.58
2023-01-19T19:15:44.376Z,20.30
2023-01-19T19:18:13.952Z,19.42
2023-01-19T19:20:42.207Z,19.60
2023-01-19T19:23:10.325Z,17.30
2023-01-19T19:25:37.446Z,21.58
2023-01-19T19:28:04.283Z,17.60
2023-01-19T19:30:32.585Z,19.77
2023-01-19T19:32:59.953Z,17.83
2023-01-19T19:35:26.550Z,17.67
2023-01-19T19:37:57.559Z,20.30
2023-01-19T19:40:27.789Z,17.98
2023-01-19T19:42:54.820Z,20.27
2023-01-19T19:45:22.433Z,21.35
2023-01-19T19:47:49.247Z,20.77
2023-01-19T19:50:16.224Z,19.05
2023-01-19T19:52:43.198Z,20.85
2023-01-19T19:55:10.861Z,20.60
2023-01-19T19:57:37.812Z,19.52
2023-01-19T20:00:07.545Z,20.73
2023-01-19T20:05:21.293Z,21.25
2023-01-19T20:07:48.376Z,23.65
2023-01-19T20:10:15.223Z,25.00
2023-01-19T20:12:42.132Z,26.45
2023-01-19T20:15:09.231Z,24.75
2023-01-19T20:17:36.025Z,30.73
2023-01-19T20:20:04.494Z,24.55
2023-01-19T20:22:32.924Z,21.42
2023-01-19T20:24:59.506Z,27.83
2023-01-19T20:27:41.180Z,25.33
2023-01-19T20:30:08.486Z,21.63
2023-01-19T20:32:35.069Z,21.23
2023-01-19T20:35:01.621Z,20.73
2023-01-19T20:37:29.290Z,24.67
2023-01-19T20:39:55.869Z,21.77
2023-01-19T20:42:22.458Z,19.42
2023-01-19T20:44:49.790Z,18.10
2023-01-19T20:47:16.399Z,20.23
2023-01-19T20:49:42.976Z,18.92
2023-01-19T20:52:09.764Z,18.85
2023-01-19T20:54:36.459Z,16.33
2023-01-19T20:57:03.126Z,16.50
2023-01-19T20:59:29.725Z,17.92
2023-01-19T21:01:56.452Z,16.38
2023-01-19T21:04:23.199Z,16.30
2023-01-19T21:06:49.873Z,15.27
2023-01-19T21:09:16.552Z,17.35
2023-01-19T21:11:43.086Z,17.77
2023-01-19T21:14:09.690Z,18.17
2023-01-19T21:16:37.459Z,17.17
2023-01-19T21:19:04.388Z,14.75
2023-01-19T21:21:32.278Z,14.80
2023-01-19T21:24:00.821Z,12.85
2023-01-19T21:26:29.942Z,15.70
2023-01-19T21:28:58.206Z,16.65
2023-01-19T21:31:27.372Z,21.17
2023-01-19T21:33:54.464Z,16.92
2023-01-19T21:36:21.562Z,16.25
2023-01-19T21:38:48.282Z,15.30
2023-01-19T21:41:16.459Z,12.88
2023-01-19T21:43:44.171Z,13.15
2023-01-19T21:46:12.761Z,13.02
2023-01-19T21:48:39.980Z,13.73
2023-01-19T21:51:06.910Z,16.33
2023-01-19T21:53:33.476Z,13.85
2023-01-19T21:56:00.490Z,12.20
2023-01-19T21:58:27.322Z,18.10
2023-01-19T22:01:05.590Z,13.48
2023-01-19T22:03:32.328Z,14.52
2023-01-19T22:06:07.381Z,12.32
2023-01-19T22:08:34.446Z,12.90
2023-01-19T22:11:09.615Z,15.60
2023-01-19T22:13:38.586Z,11.05
2023-01-19T22:16:11.649Z,14.00
2023-01-19T22:18:39.946Z,14.40
2023-01-19T22:21:13.763Z,11.60
2023-01-19T22:23:40.584Z,15.00
2023-01-19T22:26:08.097Z,13.45
2023-01-19T22:28:34.896Z,13.18
2023-01-19T22:31:06.812Z,12.48
2023-01-19T22:33:33.432Z,14.00
2023-01-19T22:36:24.288Z,15.00
2023-01-19T22:38:59.270Z,13.70
2023-01-19T22:41:28.388Z,15.40
2023-01-19T22:43:57.059Z,16.00
2023-01-19T22:46:29.666Z,15.38
2023-01-19T22:48:56.685Z,16.55
2023-01-19T22:51:23.961Z,12.40
2023-01-19T22:53:50.527Z,14.48
2023-01-19T22:56:19.282Z,17.55
2023-01-19T22:58:47.019Z,14.25
2023-01-19T23:01:16.564Z,14.95
2023-01-19T23:03:43.334Z,18.38
2023-01-19T23:06:15.189Z,17.75
2023-01-19T23:08:42.192Z,14.10
2023-01-19T23:11:11.076Z,14.38
2023-01-19T23:13:37.877Z,17.23
2023-01-19T23:16:05.264Z,16.23
2023-01-19T23:18:32.226Z,15.32
2023-01-19T23:21:03.545Z,17.65
2023-01-19T23:23:30.131Z,15.13
2023-01-19T23:26:01.761Z,13.93
2023-01-19T23:28:28.435Z,15.32
2023-01-19T23:30:55.095Z,13.55
2023-01-19T23:33:21.729Z,15.80
2023-01-19T23:35:48.402Z,14.63
2023-01-19T23:38:14.985Z,13.13
2023-01-19T23:40:41.611Z,14.25
2023-01-19T23:43:08.209Z,13.93
2023-01-19T23:45:35.480Z,16.05
2023-01-19T23:48:03.881Z,15.82
2023-01-19T23:50:30.502Z,16.52
2023-01-19T23:52:57.059Z,18.88
2023-01-19T23:55:23.605Z,16.08
2023-01-19T23:57:50.153Z,16.17
